Ana Sayfa
METAR-TAF:

METAR-TAF

Havaalanları :

Tangier, Virginia, Amerika Birleşik Devletleri

Enlem: 37-49-31N, Boylam: 075-59-52W, yükseklik: 2 m

Güncel hava durumu gözlemi

Rapor saat 05:35 UTC de 10 dakika önce yapıldı.
Rüzgar kuzeydan 16 kt ve 22 kt'a kadar ani rüzgarlar
Sıcaklık -4°C
Nem 93%
Basınç 1029 hPa
Görüş mesafesi: 3.2 km
700 ft yükseklikte çok bulutlu

METAR: KTGI 220535Z AUTO 36016G22KT 2SM OVC007 M04/M05 A3039 RMK AO1 T10391055

Saat: 00:45 (05:45 UTC)


TAF: eksik

4.000'den fazla havaalanı için hava durumu gözlemleri ve tahminleri (METAR ve TAF raporları).

Kullanılabilir istasyonlar harita üzerinde sarı ve kırmızı noktalarla gösterilir.

İstasyonun adını görmek için fareyi noktanın üzerinde gezdirin.

Sonrasında hava gözlem ve tahminlerini görmek için tıklayın.

Haritayı değiştirmek için: yaklaştırmak için siyah artı işaretli yeşil düğmeye ve uzaklaştırmak için de eksi işaretli düğmeye hızla tıklayın; bitişik haritalar için yeşil okları kullanın.


METAR-TAF: